sensor_id;sensor_type;location;lat;lon;timestamp;P1;durP1;ratioP1;P2;durP2;ratioP2
26271;SDS011;13997;48.902;12.472;2023-02-01T00:01:44;14.15;;;5.57;;
26271;SDS011;13997;48.902;12.472;2023-02-01T00:04:09;9.48;;;5.18;;
26271;SDS011;13997;48.902;12.472;2023-02-01T00:06:35;10.30;;;5.57;;
26271;SDS011;13997;48.902;12.472;2023-02-01T00:09:01;18.48;;;5.30;;
26271;SDS011;13997;48.902;12.472;2023-02-01T00:11:26;10.13;;;5.22;;
26271;SDS011;13997;48.902;12.472;2023-02-01T00:13:52;13.05;;;5.15;;
26271;SDS011;13997;48.902;12.472;2023-02-01T00:16:22;10.95;;;5.63;;
26271;SDS011;13997;48.902;12.472;2023-02-01T00:18:55;9.40;;;5.53;;
26271;SDS011;13997;48.902;12.472;2023-02-01T00:21:23;12.20;;;4.93;;
26271;SDS011;13997;48.902;12.472;2023-02-01T00:23:48;10.50;;;5.07;;
26271;SDS011;13997;48.902;12.472;2023-02-01T00:26:15;9.35;;;4.97;;
26271;SDS011;13997;48.902;12.472;2023-02-01T00:28:46;14.00;;;5.20;;
26271;SDS011;13997;48.902;12.472;2023-02-01T00:31:12;8.52;;;5.28;;
26271;SDS011;13997;48.902;12.472;2023-02-01T00:33:37;10.57;;;5.47;;
26271;SDS011;13997;48.902;12.472;2023-02-01T00:36:04;11.80;;;4.88;;
26271;SDS011;13997;48.902;12.472;2023-02-01T00:38:32;17.40;;;5.60;;
26271;SDS011;13997;48.902;12.472;2023-02-01T00:41:03;9.55;;;5.25;;
26271;SDS011;13997;48.902;12.472;2023-02-01T00:43:31;11.65;;;5.00;;
26271;SDS011;13997;48.902;12.472;2023-02-01T00:45:57;10.40;;;4.97;;
26271;SDS011;13997;48.902;12.472;2023-02-01T00:48:23;12.98;;;5.05;;
26271;SDS011;13997;48.902;12.472;2023-02-01T00:50:49;8.02;;;4.57;;
26271;SDS011;13997;48.902;12.472;2023-02-01T00:53:14;9.68;;;5.00;;
26271;SDS011;13997;48.902;12.472;2023-02-01T00:55:40;9.45;;;5.13;;
26271;SDS011;13997;48.902;12.472;2023-02-01T00:58:10;9.13;;;5.27;;
26271;SDS011;13997;48.902;12.472;2023-02-01T01:00:36;9.23;;;4.90;;
26271;SDS011;13997;48.902;12.472;2023-02-01T01:03:02;10.82;;;4.65;;
26271;SDS011;13997;48.902;12.472;2023-02-01T01:05:42;9.30;;;5.18;;
26271;SDS011;13997;48.902;12.472;2023-02-01T01:08:09;9.15;;;4.85;;
26271;SDS011;13997;48.902;12.472;2023-02-01T01:10:35;9.55;;;5.03;;
26271;SDS011;13997;48.902;12.472;2023-02-01T01:13:00;9.63;;;4.97;;
26271;SDS011;13997;48.902;12.472;2023-02-01T01:15:26;11.85;;;5.43;;
26271;SDS011;13997;48.902;12.472;2023-02-01T01:17:51;9.45;;;5.00;;
26271;SDS011;13997;48.902;12.472;2023-02-01T01:20:18;11.70;;;5.43;;
26271;SDS011;13997;48.902;12.472;2023-02-01T01:22:46;11.30;;;5.28;;
26271;SDS011;13997;48.902;12.472;2023-02-01T01:25:12;7.25;;;4.90;;
26271;SDS011;13997;48.902;12.472;2023-02-01T01:27:38;11.60;;;5.93;;
26271;SDS011;13997;48.902;12.472;2023-02-01T01:30:03;8.73;;;5.50;;
26271;SDS011;13997;48.902;12.472;2023-02-01T01:32:29;15.38;;;5.22;;
26271;SDS011;13997;48.902;12.472;2023-02-01T01:34:55;10.80;;;5.18;;
26271;SDS011;13997;48.902;12.472;2023-02-01T01:37:20;9.25;;;5.13;;
26271;SDS011;13997;48.902;12.472;2023-02-01T01:39:46;11.57;;;5.45;;
26271;SDS011;13997;48.902;12.472;2023-02-01T01:42:12;8.15;;;5.10;;
26271;SDS011;13997;48.902;12.472;2023-02-01T01:44:57;13.88;;;6.05;;
26271;SDS011;13997;48.902;12.472;2023-02-01T01:47:33;10.15;;;5.50;;
26271;SDS011;13997;48.902;12.472;2023-02-01T01:50:06;8.27;;;5.32;;
26271;SDS011;13997;48.902;12.472;2023-02-01T01:52:35;8.88;;;4.80;;
26271;SDS011;13997;48.902;12.472;2023-02-01T01:55:03;11.13;;;6.03;;
26271;SDS011;13997;48.902;12.472;2023-02-01T01:57:31;11.48;;;5.97;;
26271;SDS011;13997;48.902;12.472;2023-02-01T02:00:03;10.38;;;5.25;;
26271;SDS011;13997;48.902;12.472;2023-02-01T02:02:29;8.77;;;5.18;;
26271;SDS011;13997;48.902;12.472;2023-02-01T02:04:56;9.00;;;4.93;;
26271;SDS011;13997;48.902;12.472;2023-02-01T02:07:26;9.10;;;5.53;;
26271;SDS011;13997;48.902;12.472;2023-02-01T02:09:55;8.27;;;5.03;;
26271;SDS011;13997;48.902;12.472;2023-02-01T02:12:22;8.50;;;5.32;;
26271;SDS011;13997;48.902;12.472;2023-02-01T02:14:47;8.73;;;5.13;;
26271;SDS011;13997;48.902;12.472;2023-02-01T02:22:53;11.27;;;5.80;;
26271;SDS011;13997;48.902;12.472;2023-02-01T02:33:38;10.77;;;6.15;;
26271;SDS011;13997;48.902;12.472;2023-02-01T02:39:19;11.13;;;6.03;;
26271;SDS011;13997;48.902;12.472;2023-02-01T02:42:00;9.90;;;5.57;;
26271;SDS011;13997;48.902;12.472;2023-02-01T02:45:13;9.88;;;5.68;;
26271;SDS011;13997;48.902;12.472;2023-02-01T02:48:25;9.65;;;5.60;;
26271;SDS011;13997;48.902;12.472;2023-02-01T02:51:05;7.40;;;4.43;;
26271;SDS011;13997;48.902;12.472;2023-02-01T02:53:52;11.82;;;5.60;;
26271;SDS011;13997;48.902;12.472;2023-02-01T02:56:43;10.13;;;5.68;;
26271;SDS011;13997;48.902;12.472;2023-02-01T02:59:28;12.40;;;6.30;;
26271;SDS011;13997;48.902;12.472;2023-02-01T03:02:14;7.10;;;5.10;;
26271;SDS011;13997;48.902;12.472;2023-02-01T03:04:59;9.88;;;5.60;;
26271;SDS011;13997;48.902;12.472;2023-02-01T03:10:55;9.45;;;5.47;;
26271;SDS011;13997;48.902;12.472;2023-02-01T03:13:02;8.90;;;5.38;;
26271;SDS011;13997;48.902;12.472;2023-02-01T03:15:36;8.35;;;5.00;;
26271;SDS011;13997;48.902;12.472;2023-02-01T03:18:25;10.45;;;5.90;;
26271;SDS011;13997;48.902;12.472;2023-02-01T03:21:06;9.93;;;6.07;;
26271;SDS011;13997;48.902;12.472;2023-02-01T03:23:37;11.23;;;5.75;;
26271;SDS011;13997;48.902;12.472;2023-02-01T03:26:08;11.95;;;5.55;;
26271;SDS011;13997;48.902;12.472;2023-02-01T03:28:39;12.10;;;6.25;;
26271;SDS011;13997;48.902;12.472;2023-02-01T03:31:09;11.02;;;5.65;;
26271;SDS011;13997;48.902;12.472;2023-02-01T03:33:35;9.52;;;5.50;;
26271;SDS011;13997;48.902;12.472;2023-02-01T03:38:44;13.18;;;5.78;;
26271;SDS011;13997;48.902;12.472;2023-02-01T03:46:43;14.82;;;5.60;;
26271;SDS011;13997;48.902;12.472;2023-02-01T03:49:16;9.00;;;6.10;;
26271;SDS011;13997;48.902;12.472;2023-02-01T03:51:48;11.70;;;6.07;;
26271;SDS011;13997;48.902;12.472;2023-02-01T03:54:16;10.02;;;5.88;;
26271;SDS011;13997;48.902;12.472;2023-02-01T03:56:44;9.95;;;6.00;;
26271;SDS011;13997;48.902;12.472;2023-02-01T03:59:12;8.68;;;5.78;;
26271;SDS011;13997;48.902;12.472;2023-02-01T04:01:39;8.95;;;5.60;;
26271;SDS011;13997;48.902;12.472;2023-02-01T04:04:05;8.10;;;5.05;;
26271;SDS011;13997;48.902;12.472;2023-02-01T04:06:31;7.82;;;5.22;;
26271;SDS011;13997;48.902;12.472;2023-02-01T04:08:57;7.70;;;5.10;;
26271;SDS011;13997;48.902;12.472;2023-02-01T04:11:23;9.85;;;5.13;;
26271;SDS011;13997;48.902;12.472;2023-02-01T04:13:48;9.18;;;4.55;;
26271;SDS011;13997;48.902;12.472;2023-02-01T04:16:14;11.73;;;5.22;;
26271;SDS011;13997;48.902;12.472;2023-02-01T04:18:40;7.22;;;4.72;;
26271;SDS011;13997;48.902;12.472;2023-02-01T04:21:06;9.93;;;5.47;;
26271;SDS011;13997;48.902;12.472;2023-02-01T04:23:32;6.85;;;4.43;;
26271;SDS011;13997;48.902;12.472;2023-02-01T04:25:59;7.30;;;5.18;;
26271;SDS011;13997;48.902;12.472;2023-02-01T04:28:26;9.05;;;4.50;;
26271;SDS011;13997;48.902;12.472;2023-02-01T04:30:53;9.80;;;4.78;;
26271;SDS011;13997;48.902;12.472;2023-02-01T04:33:18;7.15;;;4.65;;
26271;SDS011;13997;48.902;12.472;2023-02-01T04:35:44;8.50;;;4.90;;
26271;SDS011;13997;48.902;12.472;2023-02-01T04:38:09;7.45;;;4.30;;
26271;SDS011;13997;48.902;12.472;2023-02-01T04:40:35;8.93;;;4.70;;
26271;SDS011;13997;48.902;12.472;2023-02-01T04:43:02;10.00;;;4.85;;
26271;SDS011;13997;48.902;12.472;2023-02-01T04:45:29;6.65;;;4.35;;
26271;SDS011;13997;48.902;12.472;2023-02-01T04:47:54;7.05;;;3.97;;
26271;SDS011;13997;48.902;12.472;2023-02-01T04:50:20;6.70;;;4.20;;
26271;SDS011;13997;48.902;12.472;2023-02-01T04:52:46;7.90;;;4.85;;
26271;SDS011;13997;48.902;12.472;2023-02-01T04:55:11;6.03;;;3.97;;
26271;SDS011;13997;48.902;12.472;2023-02-01T04:57:39;9.02;;;4.60;;
26271;SDS011;13997;48.902;12.472;2023-02-01T05:00:06;8.93;;;4.65;;
26271;SDS011;13997;48.902;12.472;2023-02-01T05:02:32;9.52;;;4.65;;
26271;SDS011;13997;48.902;12.472;2023-02-01T05:04:59;7.55;;;4.22;;
26271;SDS011;13997;48.902;12.472;2023-02-01T05:07:25;8.27;;;4.15;;
26271;SDS011;13997;48.902;12.472;2023-02-01T05:09:51;7.35;;;3.90;;
26271;SDS011;13997;48.902;12.472;2023-02-01T05:12:17;8.35;;;4.45;;
26271;SDS011;13997;48.902;12.472;2023-02-01T05:15:02;5.25;;;3.55;;
26271;SDS011;13997;48.902;12.472;2023-02-01T05:17:28;7.07;;;4.07;;
26271;SDS011;13997;48.902;12.472;2023-02-01T05:19:54;7.90;;;4.60;;
26271;SDS011;13997;48.902;12.472;2023-02-01T05:22:20;6.47;;;4.32;;
26271;SDS011;13997;48.902;12.472;2023-02-01T05:24:46;7.88;;;3.92;;
26271;SDS011;13997;48.902;12.472;2023-02-01T05:27:12;8.55;;;4.40;;
26271;SDS011;13997;48.902;12.472;2023-02-01T05:29:38;11.57;;;5.38;;
26271;SDS011;13997;48.902;12.472;2023-02-01T05:32:04;7.95;;;4.70;;
26271;SDS011;13997;48.902;12.472;2023-02-01T05:34:30;13.10;;;5.50;;
26271;SDS011;13997;48.902;12.472;2023-02-01T05:36:56;8.82;;;4.35;;
26271;SDS011;13997;48.902;12.472;2023-02-01T05:39:22;9.18;;;4.80;;
26271;SDS011;13997;48.902;12.472;2023-02-01T05:41:48;10.32;;;5.45;;
26271;SDS011;13997;48.902;12.472;2023-02-01T05:44:14;8.13;;;4.60;;
26271;SDS011;13997;48.902;12.472;2023-02-01T05:46:40;10.18;;;4.53;;
26271;SDS011;13997;48.902;12.472;2023-02-01T05:49:06;10.45;;;5.32;;
26271;SDS011;13997;48.902;12.472;2023-02-01T05:51:33;7.72;;;4.38;;
26271;SDS011;13997;48.902;12.472;2023-02-01T05:53:59;6.70;;;3.50;;
26271;SDS011;13997;48.902;12.472;2023-02-01T05:56:25;9.00;;;4.28;;
26271;SDS011;13997;48.902;12.472;2023-02-01T05:58:51;8.20;;;4.38;;
26271;SDS011;13997;48.902;12.472;2023-02-01T06:01:17;9.93;;;4.13;;
26271;SDS011;13997;48.902;12.472;2023-02-01T06:03:43;9.90;;;4.75;;
26271;SDS011;13997;48.902;12.472;2023-02-01T06:06:09;5.88;;;3.90;;
26271;SDS011;13997;48.902;12.472;2023-02-01T06:08:35;11.82;;;4.88;;
26271;SDS011;13997;48.902;12.472;2023-02-01T06:11:02;8.15;;;4.60;;
26271;SDS011;13997;48.902;12.472;2023-02-01T06:13:28;10.65;;;4.90;;
26271;SDS011;13997;48.902;12.472;2023-02-01T06:15:55;7.22;;;4.80;;
26271;SDS011;13997;48.902;12.472;2023-02-01T06:18:23;8.30;;;4.28;;
26271;SDS011;13997;48.902;12.472;2023-02-01T06:20:52;9.52;;;4.63;;
26271;SDS011;13997;48.902;12.472;2023-02-01T06:23:18;7.85;;;4.22;;
26271;SDS011;13997;48.902;12.472;2023-02-01T06:25:44;7.63;;;3.97;;
26271;SDS011;13997;48.902;12.472;2023-02-01T06:28:10;8.02;;;4.10;;
26271;SDS011;13997;48.902;12.472;2023-02-01T06:30:36;8.13;;;4.00;;
26271;SDS011;13997;48.902;12.472;2023-02-01T06:33:05;6.03;;;3.75;;
26271;SDS011;13997;48.902;12.472;2023-02-01T06:35:31;7.97;;;4.38;;
26271;SDS011;13997;48.902;12.472;2023-02-01T06:37:57;12.70;;;4.50;;
26271;SDS011;13997;48.902;12.472;2023-02-01T06:40:23;6.38;;;4.22;;
26271;SDS011;13997;48.902;12.472;2023-02-01T06:42:49;5.07;;;3.53;;
26271;SDS011;13997;48.902;12.472;2023-02-01T06:45:16;8.88;;;4.28;;
26271;SDS011;13997;48.902;12.472;2023-02-01T06:47:42;6.25;;;4.25;;
26271;SDS011;13997;48.902;12.472;2023-02-01T06:50:08;9.43;;;3.85;;
26271;SDS011;13997;48.902;12.472;2023-02-01T06:52:35;9.48;;;4.10;;
26271;SDS011;13997;48.902;12.472;2023-02-01T06:55:01;9.85;;;4.40;;
26271;SDS011;13997;48.902;12.472;2023-02-01T06:57:27;9.35;;;4.75;;
26271;SDS011;13997;48.902;12.472;2023-02-01T06:59:55;8.18;;;4.10;;
26271;SDS011;13997;48.902;12.472;2023-02-01T07:02:21;10.18;;;4.45;;
26271;SDS011;13997;48.902;12.472;2023-02-01T07:04:47;6.07;;;3.78;;
26271;SDS011;13997;48.902;12.472;2023-02-01T07:07:13;7.57;;;4.10;;
26271;SDS011;13997;48.902;12.472;2023-02-01T07:09:40;5.93;;;3.80;;
26271;SDS011;13997;48.902;12.472;2023-02-01T07:12:06;7.40;;;3.90;;
26271;SDS011;13997;48.902;12.472;2023-02-01T07:14:32;6.32;;;3.55;;
26271;SDS011;13997;48.902;12.472;2023-02-01T07:16:58;6.47;;;3.90;;
26271;SDS011;13997;48.902;12.472;2023-02-01T07:19:24;6.95;;;4.03;;
26271;SDS011;13997;48.902;12.472;2023-02-01T07:21:50;9.23;;;5.15;;
26271;SDS011;13997;48.902;12.472;2023-02-01T07:24:16;12.35;;;5.20;;
26271;SDS011;13997;48.902;12.472;2023-02-01T07:26:42;11.68;;;5.78;;
26271;SDS011;13997;48.902;12.472;2023-02-01T07:29:08;9.10;;;5.25;;
26271;SDS011;13997;48.902;12.472;2023-02-01T07:31:34;6.57;;;3.80;;
26271;SDS011;13997;48.902;12.472;2023-02-01T07:34:00;7.00;;;3.60;;
26271;SDS011;13997;48.902;12.472;2023-02-01T07:36:27;6.45;;;3.45;;
26271;SDS011;13997;48.902;12.472;2023-02-01T07:38:53;7.00;;;3.30;;
26271;SDS011;13997;48.902;12.472;2023-02-01T07:41:19;6.93;;;3.15;;
26271;SDS011;13997;48.902;12.472;2023-02-01T07:43:45;5.65;;;3.05;;
26271;SDS011;13997;48.902;12.472;2023-02-01T07:46:12;6.70;;;3.58;;
26271;SDS011;13997;48.902;12.472;2023-02-01T07:48:40;5.72;;;3.50;;
26271;SDS011;13997;48.902;12.472;2023-02-01T07:51:08;4.85;;;3.20;;
26271;SDS011;13997;48.902;12.472;2023-02-01T07:53:34;8.07;;;3.35;;
26271;SDS011;13997;48.902;12.472;2023-02-01T07:56:02;5.85;;;3.78;;
26271;SDS011;13997;48.902;12.472;2023-02-01T07:58:29;6.85;;;3.67;;
26271;SDS011;13997;48.902;12.472;2023-02-01T08:00:55;7.07;;;3.70;;
26271;SDS011;13997;48.902;12.472;2023-02-01T08:03:40;7.47;;;3.80;;
26271;SDS011;13997;48.902;12.472;2023-02-01T08:06:06;5.20;;;3.97;;
26271;SDS011;13997;48.902;12.472;2023-02-01T08:08:33;4.75;;;3.80;;
26271;SDS011;13997;48.902;12.472;2023-02-01T08:10:59;9.25;;;5.25;;
26271;SDS011;13997;48.902;12.472;2023-02-01T08:13:25;7.05;;;4.60;;
26271;SDS011;13997;48.902;12.472;2023-02-01T08:15:51;8.27;;;4.85;;
26271;SDS011;13997;48.902;12.472;2023-02-01T08:18:17;5.78;;;3.97;;
26271;SDS011;13997;48.902;12.472;2023-02-01T08:20:44;4.57;;;3.60;;
26271;SDS011;13997;48.902;12.472;2023-02-01T08:23:13;9.05;;;4.40;;
26271;SDS011;13997;48.902;12.472;2023-02-01T08:25:39;8.98;;;4.70;;
26271;SDS011;13997;48.902;12.472;2023-02-01T08:28:06;6.82;;;4.60;;
26271;SDS011;13997;48.902;12.472;2023-02-01T08:30:32;8.02;;;4.50;;
26271;SDS011;13997;48.902;12.472;2023-02-01T08:32:58;7.28;;;4.60;;
26271;SDS011;13997;48.902;12.472;2023-02-01T08:35:26;8.25;;;5.18;;
26271;SDS011;13997;48.902;12.472;2023-02-01T08:37:52;8.30;;;5.70;;
26271;SDS011;13997;48.902;12.472;2023-02-01T08:40:18;8.38;;;5.75;;
26271;SDS011;13997;48.902;12.472;2023-02-01T08:42:46;7.70;;;5.45;;
26271;SDS011;13997;48.902;12.472;2023-02-01T08:45:21;9.82;;;6.28;;
26271;SDS011;13997;48.902;12.472;2023-02-01T08:47:54;8.45;;;5.45;;
26271;SDS011;13997;48.902;12.472;2023-02-01T08:50:20;9.02;;;5.65;;
26271;SDS011;13997;48.902;12.472;2023-02-01T08:52:46;13.45;;;5.78;;
26271;SDS011;13997;48.902;12.472;2023-02-01T08:55:13;9.00;;;5.20;;
26271;SDS011;13997;48.902;12.472;2023-02-01T08:57:39;11.15;;;6.05;;
26271;SDS011;13997;48.902;12.472;2023-02-01T09:00:06;9.23;;;5.00;;
26271;SDS011;13997;48.902;12.472;2023-02-01T09:02:33;10.20;;;5.05;;
26271;SDS011;13997;48.902;12.472;2023-02-01T09:04:59;6.68;;;4.68;;
26271;SDS011;13997;48.902;12.472;2023-02-01T09:07:25;6.30;;;4.13;;
26271;SDS011;13997;48.902;12.472;2023-02-01T09:09:52;8.60;;;4.10;;
26271;SDS011;13997;48.902;12.472;2023-02-01T09:12:19;5.75;;;4.18;;
26271;SDS011;13997;48.902;12.472;2023-02-01T09:14:45;6.95;;;3.55;;
26271;SDS011;13997;48.902;12.472;2023-02-01T09:17:13;5.88;;;3.45;;
26271;SDS011;13997;48.902;12.472;2023-02-01T09:19:39;5.68;;;3.88;;
26271;SDS011;13997;48.902;12.472;2023-02-01T09:22:05;6.18;;;3.95;;
26271;SDS011;13997;48.902;12.472;2023-02-01T09:24:31;9.90;;;4.10;;
26271;SDS011;13997;48.902;12.472;2023-02-01T09:26:57;8.38;;;4.45;;
26271;SDS011;13997;48.902;12.472;2023-02-01T09:29:23;8.23;;;4.07;;
26271;SDS011;13997;48.902;12.472;2023-02-01T09:31:49;6.88;;;3.80;;
26271;SDS011;13997;48.902;12.472;2023-02-01T09:34:15;8.68;;;3.33;;
26271;SDS011;13997;48.902;12.472;2023-02-01T09:36:41;8.50;;;2.72;;
26271;SDS011;13997;48.902;12.472;2023-02-01T09:39:07;6.47;;;2.92;;
26271;SDS011;13997;48.902;12.472;2023-02-01T09:41:46;4.82;;;3.13;;
26271;SDS011;13997;48.902;12.472;2023-02-01T09:46:59;7.80;;;4.15;;
26271;SDS011;13997;48.902;12.472;2023-02-01T09:49:27;6.82;;;2.95;;
26271;SDS011;13997;48.902;12.472;2023-02-01T09:51:53;5.50;;;3.40;;
26271;SDS011;13997;48.902;12.472;2023-02-01T09:54:22;4.88;;;3.20;;
26271;SDS011;13997;48.902;12.472;2023-02-01T09:56:51;7.13;;;3.35;;
26271;SDS011;13997;48.902;12.472;2023-02-01T10:01:50;4.70;;;3.10;;
26271;SDS011;13997;48.902;12.472;2023-02-01T10:04:16;9.77;;;3.70;;
26271;SDS011;13997;48.902;12.472;2023-02-01T10:06:50;7.63;;;4.43;;
26271;SDS011;13997;48.902;12.472;2023-02-01T10:12:04;8.32;;;5.40;;
26271;SDS011;13997;48.902;12.472;2023-02-01T10:17:43;9.85;;;6.10;;
26271;SDS011;13997;48.902;12.472;2023-02-01T10:20:14;10.50;;;6.47;;
26271;SDS011;13997;48.902;12.472;2023-02-01T10:23:27;12.82;;;7.28;;
26271;SDS011;13997;48.902;12.472;2023-02-01T10:25:36;17.75;;;8.65;;
26271;SDS011;13997;48.902;12.472;2023-02-01T10:28:03;10.68;;;6.53;;
26271;SDS011;13997;48.902;12.472;2023-02-01T10:30:47;11.10;;;6.55;;
26271;SDS011;13997;48.902;12.472;2023-02-01T10:33:22;16.05;;;8.55;;
26271;SDS011;13997;48.902;12.472;2023-02-01T10:38:34;18.25;;;8.95;;
26271;SDS011;13997;48.902;12.472;2023-02-01T10:41:02;12.15;;;7.28;;
26271;SDS011;13997;48.902;12.472;2023-02-01T10:43:28;11.98;;;6.00;;
26271;SDS011;13997;48.902;12.472;2023-02-01T10:45:54;15.27;;;6.57;;
26271;SDS011;13997;48.902;12.472;2023-02-01T10:48:20;11.75;;;5.70;;
26271;SDS011;13997;48.902;12.472;2023-02-01T10:50:49;10.30;;;5.90;;
26271;SDS011;13997;48.902;12.472;2023-02-01T10:53:53;11.70;;;5.05;;
26271;SDS011;13997;48.902;12.472;2023-02-01T10:56:12;9.98;;;5.10;;
26271;SDS011;13997;48.902;12.472;2023-02-01T10:58:43;10.88;;;4.60;;
26271;SDS011;13997;48.902;12.472;2023-02-01T11:01:16;9.25;;;4.75;;
26271;SDS011;13997;48.902;12.472;2023-02-01T11:16:47;13.55;;;3.95;;
26271;SDS011;13997;48.902;12.472;2023-02-01T11:19:15;7.93;;;3.83;;
26271;SDS011;13997;48.902;12.472;2023-02-01T11:21:41;12.48;;;4.57;;
26271;SDS011;13997;48.902;12.472;2023-02-01T11:24:15;11.13;;;3.97;;
26271;SDS011;13997;48.902;12.472;2023-02-01T11:26:43;11.57;;;4.20;;
26271;SDS011;13997;48.902;12.472;2023-02-01T11:29:12;12.82;;;4.47;;
26271;SDS011;13997;48.902;12.472;2023-02-01T11:31:39;11.13;;;3.95;;
26271;SDS011;13997;48.902;12.472;2023-02-01T11:34:14;12.55;;;4.00;;
26271;SDS011;13997;48.902;12.472;2023-02-01T11:36:41;13.98;;;4.20;;
26271;SDS011;13997;48.902;12.472;2023-02-01T11:41:41;12.68;;;4.15;;
26271;SDS011;13997;48.902;12.472;2023-02-01T11:44:49;13.07;;;4.80;;
26271;SDS011;13997;48.902;12.472;2023-02-01T11:47:16;14.43;;;4.25;;
26271;SDS011;13997;48.902;12.472;2023-02-01T11:49:42;14.55;;;4.20;;
26271;SDS011;13997;48.902;12.472;2023-02-01T12:00:02;25.67;;;8.98;;
26271;SDS011;13997;48.902;12.472;2023-02-01T12:05:26;17.52;;;7.82;;
26271;SDS011;13997;48.902;12.472;2023-02-01T12:10:32;19.35;;;5.70;;
26271;SDS011;13997;48.902;12.472;2023-02-01T12:15:53;19.13;;;4.72;;
26271;SDS011;13997;48.902;12.472;2023-02-01T12:21:18;8.63;;;3.70;;
26271;SDS011;13997;48.902;12.472;2023-02-01T12:34:04;8.38;;;4.00;;
26271;SDS011;13997;48.902;12.472;2023-02-01T12:39:13;15.45;;;5.15;;
26271;SDS011;13997;48.902;12.472;2023-02-01T12:44:29;13.05;;;4.40;;
26271;SDS011;13997;48.902;12.472;2023-02-01T12:46:58;14.45;;;5.40;;
26271;SDS011;13997;48.902;12.472;2023-02-01T12:51:52;8.25;;;3.85;;
26271;SDS011;13997;48.902;12.472;2023-02-01T12:57:23;18.60;;;4.53;;
26271;SDS011;13997;48.902;12.472;2023-02-01T12:59:47;8.57;;;3.50;;
26271;SDS011;13997;48.902;12.472;2023-02-01T13:05:13;12.88;;;4.07;;
26271;SDS011;13997;48.902;12.472;2023-02-01T13:10:35;11.85;;;3.80;;
26271;SDS011;13997;48.902;12.472;2023-02-01T13:15:44;14.23;;;4.13;;
26271;SDS011;13997;48.902;12.472;2023-02-01T13:18:19;10.00;;;3.45;;
26271;SDS011;13997;48.902;12.472;2023-02-01T13:20:55;14.05;;;4.00;;
26271;SDS011;13997;48.902;12.472;2023-02-01T13:23:34;11.18;;;4.68;;
26271;SDS011;13997;48.902;12.472;2023-02-01T13:26:05;15.75;;;4.15;;
26271;SDS011;13997;48.902;12.472;2023-02-01T13:28:42;16.75;;;6.50;;
26271;SDS011;13997;48.902;12.472;2023-02-01T13:36:58;13.30;;;4.68;;
26271;SDS011;13997;48.902;12.472;2023-02-01T13:42:23;16.45;;;7.07;;
26271;SDS011;13997;48.902;12.472;2023-02-01T13:45:00;13.43;;;4.78;;
26271;SDS011;13997;48.902;12.472;2023-02-01T13:47:38;15.05;;;4.20;;
26271;SDS011;13997;48.902;12.472;2023-02-01T13:50:26;16.23;;;4.70;;
26271;SDS011;13997;48.902;12.472;2023-02-01T13:52:56;13.48;;;4.90;;
26271;SDS011;13997;48.902;12.472;2023-02-01T13:55:25;12.38;;;5.00;;
26271;SDS011;13997;48.902;12.472;2023-02-01T13:58:18;13.40;;;5.53;;
26271;SDS011;13997;48.902;12.472;2023-02-01T14:00:46;13.43;;;4.90;;
26271;SDS011;13997;48.902;12.472;2023-02-01T14:03:14;13.18;;;5.05;;
26271;SDS011;13997;48.902;12.472;2023-02-01T14:08:13;16.25;;;5.50;;
26271;SDS011;13997;48.902;12.472;2023-02-01T14:26:44;10.20;;;4.97;;
26271;SDS011;13997;48.902;12.472;2023-02-01T14:29:34;15.00;;;5.20;;
26271;SDS011;13997;48.902;12.472;2023-02-01T14:37:08;19.58;;;5.82;;
26271;SDS011;13997;48.902;12.472;2023-02-01T14:39:40;22.50;;;6.35;;
26271;SDS011;13997;48.902;12.472;2023-02-01T14:42:50;20.65;;;6.50;;
26271;SDS011;13997;48.902;12.472;2023-02-01T14:47:51;16.30;;;4.13;;
26271;SDS011;13997;48.902;12.472;2023-02-01T14:53:01;9.30;;;3.80;;
26271;SDS011;13997;48.902;12.472;2023-02-01T14:55:38;22.70;;;5.47;;
26271;SDS011;13997;48.902;12.472;2023-02-01T15:00:58;18.42;;;6.00;;
26271;SDS011;13997;48.902;12.472;2023-02-01T15:06:12;18.33;;;5.88;;
26271;SDS011;13997;48.902;12.472;2023-02-01T15:08:48;16.77;;;5.55;;
26271;SDS011;13997;48.902;12.472;2023-02-01T15:11:16;26.13;;;7.10;;
26271;SDS011;13997;48.902;12.472;2023-02-01T15:13:47;23.45;;;6.72;;
26271;SDS011;13997;48.902;12.472;2023-02-01T15:16:16;30.23;;;8.25;;
26271;SDS011;13997;48.902;12.472;2023-02-01T15:18:42;22.88;;;6.45;;
26271;SDS011;13997;48.902;12.472;2023-02-01T15:23:44;16.40;;;5.95;;
26271;SDS011;13997;48.902;12.472;2023-02-01T15:26:24;15.07;;;3.47;;
26271;SDS011;13997;48.902;12.472;2023-02-01T15:28:51;12.77;;;3.78;;
26271;SDS011;13997;48.902;12.472;2023-02-01T15:31:30;14.90;;;4.40;;
26271;SDS011;13997;48.902;12.472;2023-02-01T15:34:03;15.30;;;5.60;;
26271;SDS011;13997;48.902;12.472;2023-02-01T15:36:29;14.43;;;3.90;;
26271;SDS011;13997;48.902;12.472;2023-02-01T15:41:48;22.70;;;6.18;;
26271;SDS011;13997;48.902;12.472;2023-02-01T15:44:17;14.82;;;4.78;;
26271;SDS011;13997;48.902;12.472;2023-02-01T15:47:07;21.23;;;7.53;;
26271;SDS011;13997;48.902;12.472;2023-02-01T15:49:45;18.38;;;4.90;;
26271;SDS011;13997;48.902;12.472;2023-02-01T15:52:25;14.93;;;4.25;;
26271;SDS011;13997;48.902;12.472;2023-02-01T15:55:03;21.83;;;5.55;;
26271;SDS011;13997;48.902;12.472;2023-02-01T15:57:42;24.02;;;4.75;;
26271;SDS011;13997;48.902;12.472;2023-02-01T16:00:17;15.57;;;5.68;;
26271;SDS011;13997;48.902;12.472;2023-02-01T16:05:27;16.20;;;4.70;;
26271;SDS011;13997;48.902;12.472;2023-02-01T16:10:43;11.05;;;3.53;;
26271;SDS011;13997;48.902;12.472;2023-02-01T16:13:11;19.75;;;4.90;;
26271;SDS011;13997;48.902;12.472;2023-02-01T16:15:38;20.40;;;4.65;;
26271;SDS011;13997;48.902;12.472;2023-02-01T16:18:04;15.63;;;4.95;;
26271;SDS011;13997;48.902;12.472;2023-02-01T16:20:33;20.75;;;4.40;;
26271;SDS011;13997;48.902;12.472;2023-02-01T16:23:00;15.88;;;3.83;;
26271;SDS011;13997;48.902;12.472;2023-02-01T16:25:26;10.15;;;3.42;;
26271;SDS011;13997;48.902;12.472;2023-02-01T16:27:52;11.52;;;3.75;;
26271;SDS011;13997;48.902;12.472;2023-02-01T16:30:18;13.63;;;3.83;;
26271;SDS011;13997;48.902;12.472;2023-02-01T16:32:48;20.20;;;3.85;;
26271;SDS011;13997;48.902;12.472;2023-02-01T16:35:27;14.45;;;4.45;;
26271;SDS011;13997;48.902;12.472;2023-02-01T16:38:03;13.95;;;4.13;;
26271;SDS011;13997;48.902;12.472;2023-02-01T16:40:34;15.68;;;3.80;;
26271;SDS011;13997;48.902;12.472;2023-02-01T16:43:00;16.98;;;4.20;;
26271;SDS011;13997;48.902;12.472;2023-02-01T16:45:26;17.23;;;3.60;;
26271;SDS011;13997;48.902;12.472;2023-02-01T16:47:54;15.80;;;4.35;;
26271;SDS011;13997;48.902;12.472;2023-02-01T16:50:22;12.98;;;3.85;;
26271;SDS011;13997;48.902;12.472;2023-02-01T16:52:49;22.90;;;4.45;;
26271;SDS011;13997;48.902;12.472;2023-02-01T16:55:16;21.00;;;5.85;;
26271;SDS011;13997;48.902;12.472;2023-02-01T16:57:43;19.73;;;5.13;;
26271;SDS011;13997;48.902;12.472;2023-02-01T17:00:10;17.50;;;3.88;;
26271;SDS011;13997;48.902;12.472;2023-02-01T17:02:40;20.67;;;4.53;;
26271;SDS011;13997;48.902;12.472;2023-02-01T17:05:07;15.95;;;3.78;;
26271;SDS011;13997;48.902;12.472;2023-02-01T17:07:34;11.35;;;3.50;;
26271;SDS011;13997;48.902;12.472;2023-02-01T17:10:00;16.30;;;4.03;;
26271;SDS011;13997;48.902;12.472;2023-02-01T17:12:28;16.23;;;4.95;;
26271;SDS011;13997;48.902;12.472;2023-02-01T17:14:56;16.75;;;3.45;;
26271;SDS011;13997;48.902;12.472;2023-02-01T17:17:23;26.75;;;12.40;;
26271;SDS011;13997;48.902;12.472;2023-02-01T17:19:52;18.48;;;3.40;;
26271;SDS011;13997;48.902;12.472;2023-02-01T17:22:18;15.50;;;4.72;;